sensor_id;sensor_type;location;lat;lon;timestamp;pressure;altitude;pressure_sealevel;temperature;humidity
83200;BME280;73092;49.132;8.920;2024-03-25T00:01:20;98644.88;;;4.67;92.09
83200;BME280;73092;49.132;8.920;2024-03-25T00:03:45;98649.16;;;4.69;91.31
83200;BME280;73092;49.132;8.920;2024-03-25T00:06:11;98648.38;;;4.66;91.53
83200;BME280;73092;49.132;8.920;2024-03-25T00:08:36;98650.94;;;4.67;91.71
83200;BME280;73092;49.132;8.920;2024-03-25T00:11:02;98656.16;;;4.67;92.12
83200;BME280;73092;49.132;8.920;2024-03-25T00:13:27;98651.00;;;4.64;91.88
83200;BME280;73092;49.132;8.920;2024-03-25T00:15:52;98644.91;;;4.63;91.74
83200;BME280;73092;49.132;8.920;2024-03-25T00:18:18;98648.47;;;4.61;91.89
83200;BME280;73092;49.132;8.920;2024-03-25T00:20:44;98646.78;;;4.57;92.66
83200;BME280;73092;49.132;8.920;2024-03-25T00:23:09;98644.13;;;4.60;92.45
83200;BME280;73092;49.132;8.920;2024-03-25T00:25:34;98648.47;;;4.61;92.70
83200;BME280;73092;49.132;8.920;2024-03-25T00:28:01;98640.72;;;4.58;92.64
83200;BME280;73092;49.132;8.920;2024-03-25T00:30:26;98652.88;;;4.56;92.19
83200;BME280;73092;49.132;8.920;2024-03-25T00:32:52;98638.16;;;4.55;92.50
83200;BME280;73092;49.132;8.920;2024-03-25T00:35:17;98640.72;;;4.58;92.42
83200;BME280;73092;49.132;8.920;2024-03-25T00:37:43;98640.72;;;4.58;92.08
83200;BME280;73092;49.132;8.920;2024-03-25T00:40:10;98635.44;;;4.61;92.55
83200;BME280;73092;49.132;8.920;2024-03-25T00:42:36;98638.00;;;4.62;92.39
83200;BME280;73092;49.132;8.920;2024-03-25T00:45:02;98643.25;;;4.59;91.97
83200;BME280;73092;49.132;8.920;2024-03-25T00:47:27;98641.56;;;4.57;92.04
83200;BME280;73092;49.132;8.920;2024-03-25T00:49:53;98639.03;;;4.54;92.37
83200;BME280;73092;49.132;8.920;2024-03-25T00:52:19;98639.03;;;4.54;92.67
83200;BME280;73092;49.132;8.920;2024-03-25T00:54:45;98645.16;;;4.51;92.83
83200;BME280;73092;49.132;8.920;2024-03-25T00:57:10;98651.22;;;4.52;92.98
83200;BME280;73092;49.132;8.920;2024-03-25T00:59:37;98659.91;;;4.51;92.63
83200;BME280;73092;49.132;8.920;2024-03-25T01:02:02;98661.75;;;4.46;93.26
83200;BME280;73092;49.132;8.920;2024-03-25T01:04:27;98658.28;;;4.45;92.88
83200;BME280;73092;49.132;8.920;2024-03-25T01:06:54;98657.38;;;4.46;92.72
83200;BME280;73092;49.132;8.920;2024-03-25T01:09:19;98645.31;;;4.42;92.40
83200;BME280;73092;49.132;8.920;2024-03-25T01:11:47;98646.19;;;4.43;92.87
83200;BME280;73092;49.132;8.920;2024-03-25T01:14:12;98640.16;;;4.39;92.92
83200;BME280;73092;49.132;8.920;2024-03-25T01:16:37;98635.81;;;4.38;92.83
83200;BME280;73092;49.132;8.920;2024-03-25T01:19:03;98637.53;;;4.40;93.07
83200;BME280;73092;49.132;8.920;2024-03-25T01:21:28;98642.63;;;4.47;93.30
83200;BME280;73092;49.132;8.920;2024-03-25T01:23:55;98634.03;;;4.41;93.12
83200;BME280;73092;49.132;8.920;2024-03-25T01:26:20;98649.63;;;4.41;93.58
83200;BME280;73092;49.132;8.920;2024-03-25T01:28:46;98643.56;;;4.43;93.17
83200;BME280;73092;49.132;8.920;2024-03-25T01:31:11;98642.69;;;4.44;92.61
83200;BME280;73092;49.132;8.920;2024-03-25T01:33:36;98646.19;;;4.43;93.39
83200;BME280;73092;49.132;8.920;2024-03-25T01:36:02;98644.38;;;4.45;92.96
83200;BME280;73092;49.132;8.920;2024-03-25T01:38:29;98639.22;;;4.41;92.78
83200;BME280;73092;49.132;8.920;2024-03-25T01:40:54;98635.81;;;4.39;93.43
83200;BME280;73092;49.132;8.920;2024-03-25T01:43:22;98634.91;;;4.40;93.78
83200;BME280;73092;49.132;8.920;2024-03-25T01:45:47;98641.84;;;4.41;92.89
83200;BME280;73092;49.132;8.920;2024-03-25T01:48:15;98637.56;;;4.37;92.80
83200;BME280;73092;49.132;8.920;2024-03-25T01:50:43;98651.38;;;4.43;93.34
83200;BME280;73092;49.132;8.920;2024-03-25T01:53:09;98651.47;;;4.36;93.07
83200;BME280;73092;49.132;8.920;2024-03-25T01:55:37;98649.78;;;4.32;94.10
83200;BME280;73092;49.132;8.920;2024-03-25T01:58:04;98644.63;;;4.29;93.90
83200;BME280;73092;49.132;8.920;2024-03-25T02:00:30;98646.44;;;4.27;94.54
83200;BME280;73092;49.132;8.920;2024-03-25T02:02:57;98652.44;;;4.29;93.67
83200;BME280;73092;49.132;8.920;2024-03-25T02:05:23;98660.25;;;4.29;93.45
83200;BME280;73092;49.132;8.920;2024-03-25T02:07:48;98651.69;;;4.24;94.37
83200;BME280;73092;49.132;8.920;2024-03-25T02:10:15;98648.19;;;4.25;93.68
83200;BME280;73092;49.132;8.920;2024-03-25T02:12:41;98649.97;;;4.23;94.23
83200;BME280;73092;49.132;8.920;2024-03-25T02:15:07;98647.44;;;4.18;94.09
83200;BME280;73092;49.132;8.920;2024-03-25T02:17:35;98644.91;;;4.14;94.01
83200;BME280;73092;49.132;8.920;2024-03-25T02:20:01;98640.63;;;4.11;94.33
83200;BME280;73092;49.132;8.920;2024-03-25T02:22:28;98646.72;;;4.09;94.32
83200;BME280;73092;49.132;8.920;2024-03-25T02:24:56;98655.38;;;4.11;94.10
83200;BME280;73092;49.132;8.920;2024-03-25T02:27:22;98645.00;;;4.08;95.19
83200;BME280;73092;49.132;8.920;2024-03-25T02:29:48;98653.63;;;4.10;95.33
83200;BME280;73092;49.132;8.920;2024-03-25T02:32:13;98645.81;;;4.10;95.61
83200;BME280;73092;49.132;8.920;2024-03-25T02:34:39;98641.53;;;4.09;95.12
83200;BME280;73092;49.132;8.920;2024-03-25T02:37:07;98643.28;;;4.07;94.80
83200;BME280;73092;49.132;8.920;2024-03-25T02:39:33;98634.56;;;4.11;95.10
83200;BME280;73092;49.132;8.920;2024-03-25T02:41:59;98634.56;;;4.09;95.35
83200;BME280;73092;49.132;8.920;2024-03-25T02:44:25;98629.41;;;4.08;95.29
83200;BME280;73092;49.132;8.920;2024-03-25T02:46:50;98634.59;;;4.08;94.71
83200;BME280;73092;49.132;8.920;2024-03-25T02:49:17;98634.59;;;4.08;94.91
83200;BME280;73092;49.132;8.920;2024-03-25T02:51:43;98643.22;;;4.10;94.83
83200;BME280;73092;49.132;8.920;2024-03-25T02:54:08;98627.72;;;4.04;95.02
83200;BME280;73092;49.132;8.920;2024-03-25T02:56:37;98632.88;;;4.07;95.76
83200;BME280;73092;49.132;8.920;2024-03-25T02:59:02;98638.13;;;4.04;96.00
83200;BME280;73092;49.132;8.920;2024-03-25T03:01:27;98634.66;;;4.05;95.34
83200;BME280;73092;49.132;8.920;2024-03-25T03:03:53;98639.84;;;4.05;95.47
83200;BME280;73092;49.132;8.920;2024-03-25T03:06:18;98631.22;;;4.03;95.78
83200;BME280;73092;49.132;8.920;2024-03-25T03:08:44;98632.88;;;4.07;95.98
83200;BME280;73092;49.132;8.920;2024-03-25T03:11:09;98631.16;;;4.06;96.15
83200;BME280;73092;49.132;8.920;2024-03-25T03:13:34;98630.28;;;4.07;95.41
83200;BME280;73092;49.132;8.920;2024-03-25T03:16:00;98629.47;;;4.05;95.33
83200;BME280;73092;49.132;8.920;2024-03-25T03:18:25;98627.66;;;4.07;95.50
83200;BME280;73092;49.132;8.920;2024-03-25T03:20:50;98634.72;;;4.02;95.22
83200;BME280;73092;49.132;8.920;2024-03-25T03:23:16;98627.72;;;4.04;95.37
83200;BME280;73092;49.132;8.920;2024-03-25T03:25:41;98634.72;;;4.02;95.81
83200;BME280;73092;49.132;8.920;2024-03-25T03:28:08;98631.31;;;3.97;95.78
83200;BME280;73092;49.132;8.920;2024-03-25T03:30:33;98628.75;;;3.93;95.58
83200;BME280;73092;49.132;8.920;2024-03-25T03:32:58;98626.25;;;3.87;96.81
83200;BME280;73092;49.132;8.920;2024-03-25T03:35:24;98622.84;;;3.82;96.17
83200;BME280;73092;49.132;8.920;2024-03-25T03:37:49;98624.72;;;3.74;97.27
83200;BME280;73092;49.132;8.920;2024-03-25T03:40:14;98631.75;;;3.66;96.73
83200;BME280;73092;49.132;8.920;2024-03-25T03:42:40;98633.66;;;3.55;97.81
83200;BME280;73092;49.132;8.920;2024-03-25T03:45:06;98638.19;;;3.40;97.54
83200;BME280;73092;49.132;8.920;2024-03-25T03:47:32;98626.94;;;3.38;98.27
83200;BME280;73092;49.132;8.920;2024-03-25T03:49:57;98630.47;;;3.36;99.28
83200;BME280;73092;49.132;8.920;2024-03-25T03:52:23;98634.81;;;3.34;99.63
83200;BME280;73092;49.132;8.920;2024-03-25T03:54:48;98626.19;;;3.30;99.38
83200;BME280;73092;49.132;8.920;2024-03-25T03:57:13;98630.63;;;3.22;99.88
83200;BME280;73092;49.132;8.920;2024-03-25T03:59:39;98634.09;;;3.21;100.00
83200;BME280;73092;49.132;8.920;2024-03-25T04:02:04;98628.97;;;3.15;100.00
83200;BME280;73092;49.132;8.920;2024-03-25T04:04:29;98636.78;;;3.13;100.00
83200;BME280;73092;49.132;8.920;2024-03-25T04:06:55;98634.22;;;3.12;100.00
83200;BME280;73092;49.132;8.920;2024-03-25T04:09:21;98635.97;;;3.10;100.00
83200;BME280;73092;49.132;8.920;2024-03-25T04:11:48;98637.78;;;3.05;100.00
83200;BME280;73092;49.132;8.920;2024-03-25T04:14:14;98638.66;;;3.02;100.00
83200;BME280;73092;49.132;8.920;2024-03-25T04:16:39;98639.66;;;2.90;100.00
83200;BME280;73092;49.132;8.920;2024-03-25T04:19:04;98639.69;;;2.87;100.00
83200;BME280;73092;49.132;8.920;2024-03-25T04:21:30;98638.91;;;2.81;100.00
83200;BME280;73092;49.132;8.920;2024-03-25T04:23:55;98641.59;;;2.73;100.00
83200;BME280;73092;49.132;8.920;2024-03-25T04:26:20;98633.91;;;2.64;100.00
83200;BME280;73092;49.132;8.920;2024-03-25T04:28:46;98633.06;;;2.59;100.00
83200;BME280;73092;49.132;8.920;2024-03-25T04:31:11;98627.03;;;2.57;100.00
83200;BME280;73092;49.132;8.920;2024-03-25T04:33:38;98620.19;;;2.51;100.00
83200;BME280;73092;49.132;8.920;2024-03-25T04:36:04;98624.56;;;2.41;100.00
83200;BME280;73092;49.132;8.920;2024-03-25T04:38:30;98628.09;;;2.37;100.00
83200;BME280;73092;49.132;8.920;2024-03-25T04:40:56;98632.47;;;2.30;100.00
83200;BME280;73092;49.132;8.920;2024-03-25T04:43:22;98640.28;;;2.29;100.00
83200;BME280;73092;49.132;8.920;2024-03-25T04:45:47;98628.22;;;2.22;100.00
83200;BME280;73092;49.132;8.920;2024-03-25T04:48:12;98633.38;;;2.25;100.00
83200;BME280;73092;49.132;8.920;2024-03-25T04:50:38;98635.13;;;2.26;100.00
83200;BME280;73092;49.132;8.920;2024-03-25T04:53:03;98640.28;;;2.29;100.00
83200;BME280;73092;49.132;8.920;2024-03-25T04:55:28;98642.06;;;2.21;100.00
83200;BME280;73092;49.132;8.920;2024-03-25T04:57:54;98641.25;;;2.14;100.00
83200;BME280;73092;49.132;8.920;2024-03-25T05:00:19;98636.13;;;2.06;100.00
83200;BME280;73092;49.132;8.920;2024-03-25T05:02:44;98647.34;;;2.08;100.00
83200;BME280;73092;49.132;8.920;2024-03-25T05:05:10;98647.38;;;2.05;100.00
83200;BME280;73092;49.132;8.920;2024-03-25T05:07:35;98644.00;;;1.94;100.00
83200;BME280;73092;49.132;8.920;2024-03-25T05:10:01;98639.72;;;1.89;100.00
83200;BME280;73092;49.132;8.920;2024-03-25T05:12:26;98652.69;;;1.87;100.00
83200;BME280;73092;49.132;8.920;2024-03-25T05:14:55;98648.38;;;1.84;100.00
83200;BME280;73092;49.132;8.920;2024-03-25T05:17:21;98649.28;;;1.82;100.00
83200;BME280;73092;49.132;8.920;2024-03-25T05:19:46;98647.53;;;1.84;100.00
83200;BME280;73092;49.132;8.920;2024-03-25T05:22:11;98651.88;;;1.80;100.00
83200;BME280;73092;49.132;8.920;2024-03-25T05:24:37;98650.13;;;1.81;100.00
83200;BME280;73092;49.132;8.920;2024-03-25T05:27:02;98650.16;;;1.78;100.00
83200;BME280;73092;49.132;8.920;2024-03-25T05:29:28;98657.91;;;1.81;100.00
83200;BME280;73092;49.132;8.920;2024-03-25T05:32:00;98658.78;;;1.80;100.00
83200;BME280;73092;49.132;8.920;2024-03-25T05:34:27;98657.94;;;1.78;100.00
83200;BME280;73092;49.132;8.920;2024-03-25T05:36:52;98673.50;;;1.76;100.00
83200;BME280;73092;49.132;8.920;2024-03-25T05:39:18;98668.28;;;1.81;100.00
83200;BME280;73092;49.132;8.920;2024-03-25T05:41:44;98663.09;;;1.81;100.00
83200;BME280;73092;49.132;8.920;2024-03-25T05:44:09;98667.38;;;1.88;100.00
83200;BME280;73092;49.132;8.920;2024-03-25T05:46:35;98660.44;;;1.90;100.00
83200;BME280;73092;49.132;8.920;2024-03-25T05:49:03;98664.69;;;2.00;100.00
83200;BME280;73092;49.132;8.920;2024-03-25T05:51:30;98664.63;;;2.06;100.00
83200;BME280;73092;49.132;8.920;2024-03-25T05:53:55;98662.91;;;2.10;100.00
83200;BME280;73092;49.132;8.920;2024-03-25T05:56:21;98664.56;;;2.16;100.00
83200;BME280;73092;49.132;8.920;2024-03-25T05:58:46;98659.88;;;2.59;100.00
83200;BME280;73092;49.132;8.920;2024-03-25T06:01:12;98662.25;;;3.53;100.00
83200;BME280;73092;49.132;8.920;2024-03-25T06:03:37;98656.47;;;4.49;100.00
83200;BME280;73092;49.132;8.920;2024-03-25T06:06:03;98655.69;;;5.35;94.20
83200;BME280;73092;49.132;8.920;2024-03-25T06:08:28;98660.19;;;6.09;88.55
83200;BME280;73092;49.132;8.920;2024-03-25T06:10:54;98660.38;;;6.71;84.31
83200;BME280;73092;49.132;8.920;2024-03-25T06:13:20;98656.81;;;7.38;80.34
83200;BME280;73092;49.132;8.920;2024-03-25T06:15:46;98658.59;;;7.95;77.82
83200;BME280;73092;49.132;8.920;2024-03-25T06:18:12;98660.50;;;8.46;74.72
83200;BME280;73092;49.132;8.920;2024-03-25T06:20:37;98663.31;;;8.92;72.90
83200;BME280;73092;49.132;8.920;2024-03-25T06:23:03;98666.50;;;9.25;71.61
83200;BME280;73092;49.132;8.920;2024-03-25T06:25:29;98675.47;;;9.18;71.13
83200;BME280;73092;49.132;8.920;2024-03-25T06:27:57;98666.63;;;9.22;71.34
83200;BME280;73092;49.132;8.920;2024-03-25T06:30:22;98667.41;;;9.94;69.48
83200;BME280;73092;49.132;8.920;2024-03-25T06:33:06;98676.59;;;10.28;67.63
83200;BME280;73092;49.132;8.920;2024-03-25T06:35:50;98681.13;;;10.47;67.11
83200;BME280;73092;49.132;8.920;2024-03-25T06:38:17;98682.44;;;10.57;66.10
83200;BME280;73092;49.132;8.920;2024-03-25T06:40:42;98679.38;;;10.24;67.09
83200;BME280;73092;49.132;8.920;2024-03-25T06:43:08;98681.13;;;10.47;66.28
83200;BME280;73092;49.132;8.920;2024-03-25T06:45:33;98683.53;;;10.07;67.50
83200;BME280;73092;49.132;8.920;2024-03-25T06:47:59;98682.72;;;10.29;67.43
83200;BME280;73092;49.132;8.920;2024-03-25T06:50:24;98678.59;;;10.65;66.26
83200;BME280;73092;49.132;8.920;2024-03-25T06:52:49;98686.41;;;11.28;63.61
83200;BME280;73092;49.132;8.920;2024-03-25T06:55:15;98692.44;;;11.51;62.96
83200;BME280;73092;49.132;8.920;2024-03-25T06:57:41;98681.44;;;11.22;63.24
83200;BME280;73092;49.132;8.920;2024-03-25T07:00:07;98686.69;;;9.93;67.32
83200;BME280;73092;49.132;8.920;2024-03-25T07:02:38;98690.72;;;10.68;65.96
83200;BME280;73092;49.132;8.920;2024-03-25T07:05:03;98695.97;;;11.10;64.64
83200;BME280;73092;49.132;8.920;2024-03-25T07:07:29;98689.84;;;10.89;64.18
83200;BME280;73092;49.132;8.920;2024-03-25T07:09:54;98693.44;;;11.67;63.09
83200;BME280;73092;49.132;8.920;2024-03-25T07:12:19;98697.88;;;12.23;60.89
83200;BME280;73092;49.132;8.920;2024-03-25T07:14:45;98698.25;;;12.52;59.62
83200;BME280;73092;49.132;8.920;2024-03-25T07:17:11;98700.41;;;12.08;59.56
83200;BME280;73092;49.132;8.920;2024-03-25T07:19:36;98703.31;;;12.38;59.77
83200;BME280;73092;49.132;8.920;2024-03-25T07:22:01;98694.84;;;11.55;60.80
83200;BME280;73092;49.132;8.920;2024-03-25T07:24:27;98696.31;;;11.63;60.93
83200;BME280;73092;49.132;8.920;2024-03-25T07:26:52;98690.97;;;9.96;65.71
83200;BME280;73092;49.132;8.920;2024-03-25T07:29:17;98674.44;;;8.98;69.45
83200;BME280;73092;49.132;8.920;2024-03-25T07:31:43;98684.84;;;7.92;73.27
83200;BME280;73092;49.132;8.920;2024-03-25T07:34:08;98687.31;;;7.69;74.53
83200;BME280;73092;49.132;8.920;2024-03-25T07:36:37;98686.09;;;7.51;75.53
83200;BME280;73092;49.132;8.920;2024-03-25T07:39:02;98686.91;;;7.22;77.20
83200;BME280;73092;49.132;8.920;2024-03-25T07:41:28;98687.50;;;7.00;77.61
83200;BME280;73092;49.132;8.920;2024-03-25T07:43:53;98674.44;;;6.99;79.03
83200;BME280;73092;49.132;8.920;2024-03-25T07:46:18;98674.91;;;7.14;79.15
83200;BME280;73092;49.132;8.920;2024-03-25T07:48:44;98674.91;;;7.14;77.99
83200;BME280;73092;49.132;8.920;2024-03-25T07:51:09;98679.78;;;7.27;77.83
83200;BME280;73092;49.132;8.920;2024-03-25T07:53:35;98674.31;;;7.36;77.33
83200;BME280;73092;49.132;8.920;2024-03-25T07:56:00;98675.84;;;7.43;76.97
83200;BME280;73092;49.132;8.920;2024-03-25T07:58:25;98678.47;;;7.43;76.91
83200;BME280;73092;49.132;8.920;2024-03-25T08:00:51;98673.28;;;7.41;77.30
83200;BME280;73092;49.132;8.920;2024-03-25T08:03:16;98671.16;;;7.54;76.43
83200;BME280;73092;49.132;8.920;2024-03-25T08:05:42;98673.41;;;7.67;76.77
83200;BME280;73092;49.132;8.920;2024-03-25T08:08:07;98681.63;;;7.84;74.78
83200;BME280;73092;49.132;8.920;2024-03-25T08:10:32;98680.00;;;8.08;73.70
83200;BME280;73092;49.132;8.920;2024-03-25T08:12:58;98672.41;;;8.00;72.49
83200;BME280;73092;49.132;8.920;2024-03-25T08:15:23;98668.69;;;8.07;72.53
83200;BME280;73092;49.132;8.920;2024-03-25T08:17:48;98683.34;;;8.41;71.72
83200;BME280;73092;49.132;8.920;2024-03-25T08:20:14;98674.69;;;8.66;70.33
83200;BME280;73092;49.132;8.920;2024-03-25T08:22:39;98680.50;;;8.74;70.33
83200;BME280;73092;49.132;8.920;2024-03-25T08:25:04;98675.25;;;9.00;69.27
83200;BME280;73092;49.132;8.920;2024-03-25T08:27:30;98665.22;;;9.12;67.54
83200;BME280;73092;49.132;8.920;2024-03-25T08:29:55;98670.41;;;9.38;67.92
83200;BME280;73092;49.132;8.920;2024-03-25T08:32:21;98667.06;;;9.33;67.47
83200;BME280;73092;49.132;8.920;2024-03-25T08:34:46;98669.81;;;9.30;65.25
83200;BME280;73092;49.132;8.920;2024-03-25T08:37:12;98662.75;;;9.32;64.49
83200;BME280;73092;49.132;8.920;2024-03-25T08:39:37;98666.41;;;9.28;64.31
83200;BME280;73092;49.132;8.920;2024-03-25T08:42:03;98677.19;;;8.42;61.00
83200;BME280;73092;49.132;8.920;2024-03-25T08:44:28;98659.69;;;8.44;64.53
83200;BME280;73092;49.132;8.920;2024-03-25T08:46:54;98668.00;;;8.02;63.23
83200;BME280;73092;49.132;8.920;2024-03-25T08:49:19;98668.59;;;8.10;62.67
83200;BME280;73092;49.132;8.920;2024-03-25T08:51:45;98655.09;;;7.96;63.76
83200;BME280;73092;49.132;8.920;2024-03-25T08:54:10;98662.38;;;7.27;66.15
83200;BME280;73092;49.132;8.920;2024-03-25T08:56:35;98661.94;;;7.11;67.94
83200;BME280;73092;49.132;8.920;2024-03-25T08:59:00;98658.34;;;7.14;67.57
83200;BME280;73092;49.132;8.920;2024-03-25T09:01:26;98660.25;;;7.40;65.90
83200;BME280;73092;49.132;8.920;2024-03-25T09:03:52;98656.50;;;7.78;66.41
83200;BME280;73092;49.132;8.920;2024-03-25T09:06:17;98654.81;;;7.77;63.88
83200;BME280;73092;49.132;8.920;2024-03-25T09:08:43;98660.53;;;7.31;62.17
83200;BME280;73092;49.132;8.920;2024-03-25T09:11:27;98645.63;;;7.33;63.10
83200;BME280;73092;49.132;8.920;2024-03-25T09:13:52;98653.59;;;7.59;63.30
83200;BME280;73092;49.132;8.920;2024-03-25T09:16:18;98643.16;;;7.86;60.97
83200;BME280;73092;49.132;8.920;2024-03-25T09:18:44;98639.56;;;7.62;59.49
83200;BME280;73092;49.132;8.920;2024-03-25T09:21:09;98654.94;;;7.43;59.06
83200;BME280;73092;49.132;8.920;2024-03-25T09:23:35;98649.47;;;7.80;60.93
83200;BME280;73092;49.132;8.920;2024-03-25T09:26:00;98648.47;;;8.13;61.09
83200;BME280;73092;49.132;8.920;2024-03-25T09:28:25;98644.34;;;8.32;61.08
83200;BME280;73092;49.132;8.920;2024-03-25T09:30:50;98640.31;;;8.48;60.83
83200;BME280;73092;49.132;8.920;2024-03-25T09:33:16;98639.91;;;8.61;60.73
83200;BME280;73092;49.132;8.920;2024-03-25T09:35:41;98642.34;;;8.67;60.38
83200;BME280;73092;49.132;8.920;2024-03-25T09:38:06;98626.28;;;8.76;61.78
83200;BME280;73092;49.132;8.920;2024-03-25T09:40:35;98624.28;;;8.84;59.95
83200;BME280;73092;49.132;8.920;2024-03-25T09:43:02;98612.25;;;8.77;60.43
83200;BME280;73092;49.132;8.920;2024-03-25T09:45:29;98611.31;;;8.79;58.05
83200;BME280;73092;49.132;8.920;2024-03-25T09:47:55;98600.03;;;9.02;59.18
83200;BME280;73092;49.132;8.920;2024-03-25T09:50:21;98606.00;;;9.30;57.38
83200;BME280;73092;49.132;8.920;2024-03-25T09:52:50;98606.84;;;9.30;56.59
83200;BME280;73092;49.132;8.920;2024-03-25T09:55:16;98598.88;;;9.33;56.93
83200;BME280;73092;49.132;8.920;2024-03-25T09:57:43;98594.44;;;9.35;54.80
83200;BME280;73092;49.132;8.920;2024-03-25T10:00:09;98598.00;;;9.56;56.06
83200;BME280;73092;49.132;8.920;2024-03-25T10:02:39;98596.53;;;9.71;55.39
83200;BME280;73092;49.132;8.920;2024-03-25T10:05:06;98593.31;;;9.86;55.68
83200;BME280;73092;49.132;8.920;2024-03-25T10:07:32;98593.63;;;9.57;54.29
83200;BME280;73092;49.132;8.920;2024-03-25T10:09:57;98589.41;;;9.29;54.45
83200;BME280;73092;49.132;8.920;2024-03-25T10:12:24;98600.13;;;9.23;54.00
83200;BME280;73092;49.132;8.920;2024-03-25T10:14:49;98582.69;;;9.22;54.79
83200;BME280;73092;49.132;8.920;2024-03-25T10:17:15;98577.50;;;9.66;55.23
83200;BME280;73092;49.132;8.920;2024-03-25T10:19:40;98573.38;;;9.82;55.16
83200;BME280;73092;49.132;8.920;2024-03-25T10:22:07;98565.47;;;9.38;56.06
83200;BME280;73092;49.132;8.920;2024-03-25T10:24:45;98562.41;;;9.03;56.38
83200;BME280;73092;49.132;8.920;2024-03-25T10:27:23;98567.00;;;9.44;57.01
83200;BME280;73092;49.132;8.920;2024-03-25T10:29:53;98569.25;;;9.31;56.35
83200;BME280;73092;49.132;8.920;2024-03-25T10:32:18;98557.97;;;9.73;56.50
83200;BME280;73092;49.132;8.920;2024-03-25T10:34:44;98549.88;;;10.00;55.41
83200;BME280;73092;49.132;8.920;2024-03-25T10:37:10;98556.38;;;10.13;55.22
83200;BME280;73092;49.132;8.920;2024-03-25T10:39:48;98543.34;;;10.32;56.20
83200;BME280;73092;49.132;8.920;2024-03-25T10:42:18;98548.13;;;10.42;54.54
83200;BME280;73092;49.132;8.920;2024-03-25T10:44:44;98546.31;;;10.45;53.73
83200;BME280;73092;49.132;8.920;2024-03-25T10:47:17;98541.31;;;10.38;53.97
83200;BME280;73092;49.132;8.920;2024-03-25T10:49:52;98555.19;;;10.20;52.76
83200;BME280;73092;49.132;8.920;2024-03-25T10:52:21;98546.63;;;9.94;53.10
83200;BME280;73092;49.132;8.920;2024-03-25T10:54:47;98538.06;;;9.89;53.59
83200;BME280;73092;49.132;8.920;2024-03-25T10:57:13;98530.59;;;10.01;55.57
83200;BME280;73092;49.132;8.920;2024-03-25T10:59:38;98524.84;;;10.13;54.98
83200;BME280;73092;49.132;8.920;2024-03-25T11:02:07;98534.28;;;9.96;52.61
83200;BME280;73092;49.132;8.920;2024-03-25T11:04:33;98531.84;;;9.70;53.39
83200;BME280;73092;49.132;8.920;2024-03-25T11:09:34;98518.13;;;10.06;53.15
83200;BME280;73092;49.132;8.920;2024-03-25T11:11:59;98506.97;;;10.21;53.69
83200;BME280;73092;49.132;8.920;2024-03-25T11:14:25;98512.63;;;10.12;52.92
83200;BME280;73092;49.132;8.920;2024-03-25T11:16:52;98511.81;;;9.89;53.23
83200;BME280;73092;49.132;8.920;2024-03-25T11:19:18;98505.88;;;10.06;53.44
83200;BME280;73092;49.132;8.920;2024-03-25T11:21:44;98502.59;;;9.79;52.30
83200;BME280;73092;49.132;8.920;2024-03-25T11:24:09;98493.41;;;9.47;52.55
83200;BME280;73092;49.132;8.920;2024-03-25T11:26:34;98480.06;;;9.31;53.45
83200;BME280;73092;49.132;8.920;2024-03-25T11:29:05;98478.69;;;9.65;53.26
83200;BME280;73092;49.132;8.920;2024-03-25T11:31:33;98475.84;;;9.91;52.80
83200;BME280;73092;49.132;8.920;2024-03-25T11:34:04;98457.75;;;10.26;54.14
83200;BME280;73092;49.132;8.920;2024-03-25T11:36:29;98467.84;;;9.94;50.65
83200;BME280;73092;49.132;8.920;2024-03-25T11:41:26;98452.69;;;10.42;51.19
83200;BME280;73092;49.132;8.920;2024-03-25T11:43:51;98458.25;;;10.55;51.50
83200;BME280;73092;49.132;8.920;2024-03-25T11:46:18;98464.66;;;10.68;50.73
83200;BME280;73092;49.132;8.920;2024-03-25T11:48:44;98459.66;;;10.62;49.83
83200;BME280;73092;49.132;8.920;2024-03-25T11:51:12;98446.69;;;10.78;50.40
83200;BME280;73092;49.132;8.920;2024-03-25T11:53:38;98450.19;;;10.78;49.40
83200;BME280;73092;49.132;8.920;2024-03-25T11:56:03;98447.91;;;10.89;49.11
83200;BME280;73092;49.132;8.920;2024-03-25T11:58:29;98450.19;;;10.78;48.49
83200;BME280;73092;49.132;8.920;2024-03-25T12:00:54;98437.34;;;10.52;49.05
83200;BME280;73092;49.132;8.920;2024-03-25T12:03:21;98409.56;;;10.07;52.09
83200;BME280;73092;49.132;8.920;2024-03-25T12:05:46;98396.16;;;9.72;54.03
83200;BME280;73092;49.132;8.920;2024-03-25T12:08:11;98394.41;;;9.72;54.06
83200;BME280;73092;49.132;8.920;2024-03-25T12:10:38;98392.69;;;9.92;54.53
83200;BME280;73092;49.132;8.920;2024-03-25T12:13:23;98396.81;;;9.77;53.24
83200;BME280;73092;49.132;8.920;2024-03-25T12:15:53;98392.63;;;9.73;54.75
83200;BME280;73092;49.132;8.920;2024-03-25T12:18:18;98396.41;;;9.86;53.32
83200;BME280;73092;49.132;8.920;2024-03-25T12:20:47;98389.38;;;9.87;52.97
83200;BME280;73092;49.132;8.920;2024-03-25T12:23:13;98391.69;;;9.74;51.96
83200;BME280;73092;49.132;8.920;2024-03-25T12:25:38;98395.63;;;9.64;51.62
83200;BME280;73092;49.132;8.920;2024-03-25T12:28:10;98383.19;;;9.69;53.13
83200;BME280;73092;49.132;8.920;2024-03-25T12:30:49;98379.38;;;9.76;52.47
83200;BME280;73092;49.132;8.920;2024-03-25T12:33:14;98368.81;;;10.17;52.16
83200;BME280;73092;49.132;8.920;2024-03-25T12:35:41;98371.59;;;10.14;51.08
83200;BME280;73092;49.132;8.920;2024-03-25T12:38:06;98363.44;;;10.20;52.34
83200;BME280;73092;49.132;8.920;2024-03-25T12:40:31;98348.28;;;10.27;52.84
83200;BME280;73092;49.132;8.920;2024-03-25T12:42:57;98336.50;;;10.35;51.80
83200;BME280;73092;49.132;8.920;2024-03-25T12:45:23;98337.59;;;10.50;51.54
83200;BME280;73092;49.132;8.920;2024-03-25T12:47:50;98335.38;;;10.60;52.23
83200;BME280;73092;49.132;8.920;2024-03-25T12:50:15;98318.31;;;10.50;52.38
83200;BME280;73092;49.132;8.920;2024-03-25T12:52:41;98325.16;;;10.54;50.94
83200;BME280;73092;49.132;8.920;2024-03-25T12:55:06;98329.09;;;10.81;50.72
83200;BME280;73092;49.132;8.920;2024-03-25T12:57:31;98328.94;;;10.84;50.49
83200;BME280;73092;49.132;8.920;2024-03-25T12:59:57;98321.44;;;10.58;50.42
83200;BME280;73092;49.132;8.920;2024-03-25T13:02:22;98314.34;;;10.41;51.18
83200;BME280;73092;49.132;8.920;2024-03-25T13:04:48;98300.94;;;10.08;52.78
83200;BME280;73092;49.132;8.920;2024-03-25T13:07:13;98284.41;;;10.06;53.38